createdAt,value
2023-05-02T00:06:31.760Z,7.70
2023-05-02T00:16:33.454Z,7.43
2023-05-02T00:26:35.102Z,7.63
2023-05-02T00:36:36.744Z,7.37
2023-05-02T00:46:38.488Z,8.40
2023-05-02T00:56:40.660Z,7.77
2023-05-02T01:06:42.282Z,7.27
2023-05-02T01:16:47.069Z,7.00
2023-05-02T01:27:02.673Z,7.30
2023-05-02T01:37:06.811Z,7.83
2023-05-02T01:47:10.312Z,7.23
2023-05-02T01:57:13.167Z,7.93
2023-05-02T02:07:15.191Z,6.93
2023-05-02T02:17:40.479Z,6.60
2023-05-02T02:27:42.984Z,7.43
2023-05-02T02:37:54.891Z,7.33
2023-05-02T02:48:19.073Z,7.27
2023-05-02T02:58:52.259Z,7.10
2023-05-02T03:08:53.865Z,7.20
2023-05-02T03:18:55.493Z,6.37
2023-05-02T03:28:57.387Z,5.80
2023-05-02T03:38:59.006Z,6.57
2023-05-02T03:49:00.626Z,6.47
2023-05-02T03:59:02.400Z,6.73
2023-05-02T04:09:04.086Z,6.27
2023-05-02T04:19:06.314Z,6.70
2023-05-02T04:29:08.013Z,6.50
2023-05-02T04:39:09.842Z,6.33
2023-05-02T04:49:12.110Z,7.03
2023-05-02T04:59:13.801Z,7.13
2023-05-02T05:09:15.816Z,6.70
2023-05-02T05:19:17.477Z,7.03
2023-05-02T05:29:19.290Z,6.97
2023-05-02T05:39:20.962Z,7.43
2023-05-02T05:49:24.219Z,8.63
2023-05-02T05:59:25.859Z,7.90
2023-05-02T06:09:27.606Z,7.90
2023-05-02T06:19:29.467Z,8.80
2023-05-02T06:29:31.487Z,9.60
2023-05-02T06:39:33.601Z,9.73
2023-05-02T06:49:35.412Z,9.10
2023-05-02T06:59:37.532Z,9.60
2023-05-02T07:09:39.369Z,9.90
2023-05-02T07:19:45.463Z,9.83
2023-05-02T07:29:48.528Z,16.50
2023-05-02T07:39:50.267Z,10.83
2023-05-02T07:49:52.655Z,11.13
2023-05-02T07:59:57.080Z,11.17
2023-05-02T08:09:59.176Z,11.40
2023-05-02T08:20:04.399Z,10.27
2023-05-02T08:30:07.150Z,9.80
2023-05-02T08:40:12.657Z,10.03
2023-05-02T08:50:16.724Z,8.40
2023-05-02T09:00:18.861Z,9.20
2023-05-02T09:10:21.896Z,8.37
2023-05-02T09:20:23.644Z,8.00
2023-05-02T09:30:26.500Z,8.03
2023-05-02T09:40:30.117Z,7.37
2023-05-02T09:50:38.559Z,6.77
2023-05-02T10:00:42.864Z,7.57
2023-05-02T10:10:57.008Z,8.00
2023-05-02T10:21:01.603Z,14.23
2023-05-02T10:31:05.151Z,8.73
2023-05-02T10:41:14.599Z,6.80
2023-05-02T10:51:31.391Z,6.67
2023-05-02T11:01:37.592Z,6.30
2023-05-02T11:11:43.528Z,6.03
2023-05-02T11:21:45.454Z,5.23
2023-05-02T11:31:55.002Z,5.43
2023-05-02T11:41:56.694Z,9.97
2023-05-02T11:51:59.333Z,6.03
2023-05-02T12:02:00.960Z,6.17
2023-05-02T12:12:03.440Z,8.20
2023-05-02T12:22:06.191Z,7.43
2023-05-02T12:32:08.349Z,6.93
2023-05-02T12:42:11.828Z,6.30
2023-05-02T12:52:13.894Z,5.07
2023-05-02T13:02:15.514Z,4.60
2023-05-02T13:12:18.147Z,4.43
2023-05-02T13:22:20.265Z,4.47
2023-05-02T13:32:22.438Z,3.47
2023-05-02T13:42:24.595Z,2.60
2023-05-02T13:52:26.713Z,2.57
2023-05-02T14:02:29.078Z,3.07
2023-05-02T14:12:31.754Z,2.00
2023-05-02T14:22:33.411Z,2.37
2023-05-02T14:32:35.327Z,2.73
2023-05-02T14:42:37.221Z,2.37
2023-05-02T14:52:39.069Z,2.33
2023-05-02T15:02:41.320Z,2.03
2023-05-02T15:12:43.261Z,2.20
2023-05-02T15:22:44.957Z,2.40
2023-05-02T15:32:46.664Z,2.07
2023-05-02T15:42:48.773Z,2.47
2023-05-02T15:52:50.946Z,1.60
2023-05-02T16:02:52.562Z,2.28
2023-05-02T16:12:54.561Z,1.90
2023-05-02T16:22:56.318Z,1.48
2023-05-02T16:32:57.942Z,2.10
2023-05-02T16:43:00.095Z,1.60
2023-05-02T16:53:01.766Z,1.27
2023-05-02T17:03:05.172Z,1.10
2023-05-02T17:13:07.761Z,0.90
2023-05-02T17:23:09.814Z,1.13
2023-05-02T17:33:12.021Z,1.07
2023-05-02T17:43:14.147Z,1.20
2023-05-02T17:53:16.219Z,1.30
2023-05-02T18:03:18.422Z,1.43
2023-05-02T18:13:20.161Z,1.70
2023-05-02T18:23:21.789Z,1.77
2023-05-02T18:33:23.450Z,1.70
2023-05-02T18:43:25.070Z,2.40
2023-05-02T18:53:26.736Z,2.57
2023-05-02T19:03:28.611Z,2.37
2023-05-02T19:13:31.045Z,2.83
2023-05-02T19:23:32.810Z,2.67
2023-05-02T19:33:34.597Z,2.70
2023-05-02T19:43:36.535Z,2.70
2023-05-02T19:53:38.356Z,3.10
2023-05-02T20:03:40.035Z,3.50
2023-05-02T20:13:41.742Z,4.33
2023-05-02T20:23:44.908Z,4.20
2023-05-02T20:33:46.573Z,4.87
2023-05-02T20:43:48.202Z,4.53
2023-05-02T20:53:49.885Z,4.87
2023-05-02T21:03:51.520Z,5.10
2023-05-02T21:13:53.220Z,4.70
2023-05-02T21:23:54.863Z,4.90
2023-05-02T21:33:56.497Z,4.93
2023-05-02T21:43:58.141Z,4.80
2023-05-02T21:53:59.941Z,5.30
2023-05-02T22:04:01.764Z,5.00
2023-05-02T22:14:03.385Z,5.17
2023-05-02T22:24:05.420Z,4.93
2023-05-02T22:34:07.093Z,5.67
2023-05-02T22:44:09.264Z,5.57
2023-05-02T22:54:10.989Z,5.43
2023-05-02T23:04:12.591Z,5.40
2023-05-02T23:14:15.019Z,5.93
2023-05-02T23:24:16.817Z,5.60
2023-05-02T23:34:18.561Z,5.90
2023-05-02T23:44:20.228Z,5.83
2023-05-02T23:54:21.976Z,5.67
